createdAt,value
2022-09-24T00:00:13.995Z,15.54
2022-09-24T00:01:16.208Z,15.55
2022-09-24T00:02:13.727Z,15.55
2022-09-24T00:03:13.074Z,15.56
2022-09-24T00:04:13.694Z,15.55
2022-09-24T00:05:13.680Z,15.56
2022-09-24T00:06:13.664Z,15.55
2022-09-24T00:07:13.103Z,15.55
2022-09-24T00:08:13.649Z,15.55
2022-09-24T00:09:13.224Z,15.54
2022-09-24T00:10:13.007Z,15.54
2022-09-24T00:11:14.026Z,15.52
2022-09-24T00:12:12.975Z,15.52
2022-09-24T00:13:13.275Z,15.51
2022-09-24T00:14:12.936Z,15.50
2022-09-24T00:15:12.980Z,15.50
2022-09-24T00:16:13.598Z,15.49
2022-09-24T00:17:12.917Z,15.49
2022-09-24T00:18:13.542Z,15.48
2022-09-24T00:19:13.531Z,15.48
2022-09-24T00:20:13.517Z,15.48
2022-09-24T00:21:12.810Z,15.48
2022-09-24T00:22:12.917Z,15.49
2022-09-24T00:23:12.880Z,15.49
2022-09-24T00:24:13.468Z,15.49
2022-09-24T00:25:13.539Z,15.48
2022-09-24T00:26:13.454Z,15.47
2022-09-24T00:27:12.779Z,15.48
2022-09-24T00:28:13.427Z,15.48
2022-09-24T00:29:13.422Z,15.48
2022-09-24T00:30:13.401Z,15.48
2022-09-24T00:31:13.407Z,15.49
2022-09-24T00:32:14.122Z,15.48
2022-09-24T00:33:13.370Z,15.49
2022-09-24T00:34:12.692Z,15.49
2022-09-24T00:35:13.353Z,15.49
2022-09-24T00:36:13.331Z,15.49
2022-09-24T00:37:13.311Z,15.50
2022-09-24T00:38:12.643Z,15.50
2022-09-24T00:39:12.625Z,15.51
2022-09-24T00:40:13.336Z,15.51
2022-09-24T00:41:12.602Z,15.51
2022-09-24T00:42:12.588Z,15.51
2022-09-24T00:43:12.624Z,15.51
2022-09-24T00:44:14.007Z,15.51
2022-09-24T00:45:13.244Z,15.51
2022-09-24T00:46:13.295Z,15.51
2022-09-24T00:47:13.215Z,15.50
2022-09-24T00:48:12.637Z,15.51
2022-09-24T00:49:13.203Z,15.51
2022-09-24T00:50:12.517Z,15.51
2022-09-24T00:51:12.486Z,15.50
2022-09-24T00:52:13.176Z,15.51
2022-09-24T00:53:13.905Z,15.51
2022-09-24T00:54:13.143Z,15.52
2022-09-24T00:55:14.020Z,15.52
2022-09-24T00:56:13.126Z,15.53
2022-09-24T00:57:13.875Z,15.54
2022-09-24T00:58:13.121Z,15.52
2022-09-24T00:59:13.095Z,15.51
2022-09-24T01:00:12.399Z,15.51
2022-09-24T01:01:13.546Z,15.51
2022-09-24T01:02:13.107Z,15.50
2022-09-24T01:03:12.373Z,15.50
2022-09-24T01:04:12.370Z,15.49
2022-09-24T01:05:13.029Z,15.49
2022-09-24T01:06:12.331Z,15.49
2022-09-24T01:07:12.350Z,15.48
2022-09-24T01:08:13.006Z,15.47
2022-09-24T01:09:12.988Z,15.46
2022-09-24T01:10:12.971Z,15.45
2022-09-24T01:11:13.720Z,15.45
2022-09-24T01:12:13.198Z,15.44
2022-09-24T01:13:12.298Z,15.44
2022-09-24T01:14:12.933Z,15.44
2022-09-24T01:15:12.925Z,15.44
2022-09-24T01:16:12.974Z,15.44
2022-09-24T01:17:12.891Z,15.43
2022-09-24T01:18:12.220Z,15.43
2022-09-24T01:19:12.883Z,15.42
2022-09-24T01:20:12.861Z,15.42
2022-09-24T01:21:12.171Z,15.41
2022-09-24T01:22:12.851Z,15.40
2022-09-24T01:23:12.835Z,15.39
2022-09-24T01:24:12.213Z,15.39
2022-09-24T01:25:12.286Z,15.38
2022-09-24T01:26:12.808Z,15.39
2022-09-24T01:27:12.797Z,15.38
2022-09-24T01:28:12.081Z,15.37
2022-09-24T01:29:12.076Z,15.38
2022-09-24T01:30:12.755Z,15.37
2022-09-24T01:31:12.777Z,15.37
2022-09-24T01:32:12.040Z,15.37
2022-09-24T01:33:13.477Z,15.37
2022-09-24T01:34:12.969Z,15.36
2022-09-24T01:35:12.697Z,15.36
2022-09-24T01:36:12.017Z,15.35
2022-09-24T01:37:12.027Z,15.35
2022-09-24T01:38:12.017Z,15.36
2022-09-24T01:39:12.665Z,15.35
2022-09-24T01:40:11.997Z,15.36
2022-09-24T01:41:12.650Z,15.36
2022-09-24T01:42:12.630Z,15.36
2022-09-24T01:43:12.716Z,15.37
2022-09-24T01:44:12.619Z,15.37
2022-09-24T01:45:11.933Z,15.37
2022-09-24T01:46:11.985Z,15.37
2022-09-24T01:47:11.898Z,15.37
2022-09-24T01:48:12.559Z,15.37
2022-09-24T01:49:12.539Z,15.38
2022-09-24T01:50:12.542Z,15.38
2022-09-24T01:51:12.675Z,15.38
2022-09-24T01:52:11.829Z,15.37
2022-09-24T01:53:12.517Z,15.35
2022-09-24T01:54:12.493Z,15.32
2022-09-24T01:55:11.829Z,15.29
2022-09-24T01:56:12.471Z,15.27
2022-09-24T01:57:12.469Z,15.25
2022-09-24T01:58:11.771Z,15.23
2022-09-24T01:59:12.675Z,15.22
2022-09-24T02:00:12.424Z,15.20
2022-09-24T02:01:11.797Z,15.20
2022-09-24T02:02:13.233Z,15.18
2022-09-24T02:03:11.728Z,15.16
2022-09-24T02:04:12.384Z,15.15
2022-09-24T02:05:12.372Z,15.14
2022-09-24T02:06:12.494Z,15.15
2022-09-24T02:07:11.715Z,15.14
2022-09-24T02:08:11.654Z,15.13
2022-09-24T02:09:11.647Z,15.11
2022-09-24T02:10:12.549Z,15.10
2022-09-24T02:11:11.634Z,15.09
2022-09-24T02:12:11.607Z,15.09
2022-09-24T02:13:11.647Z,15.09
2022-09-24T02:14:12.278Z,15.09
2022-09-24T02:15:11.585Z,15.09
2022-09-24T02:16:12.298Z,15.09
2022-09-24T02:17:11.559Z,15.10
2022-09-24T02:18:11.565Z,15.10
2022-09-24T02:19:11.650Z,15.09
2022-09-24T02:20:12.206Z,15.07
2022-09-24T02:21:12.198Z,15.07
2022-09-24T02:22:13.345Z,15.06
2022-09-24T02:23:11.517Z,15.06
2022-09-24T02:24:11.567Z,15.05
2022-09-24T02:25:12.159Z,15.04
2022-09-24T02:26:11.458Z,15.03
2022-09-24T02:27:12.146Z,15.03
2022-09-24T02:28:12.351Z,15.01
2022-09-24T02:29:11.441Z,15.01
2022-09-24T02:30:12.100Z,15.01
2022-09-24T02:31:12.112Z,15.00
2022-09-24T02:32:11.383Z,15.00
2022-09-24T02:33:12.071Z,14.99
2022-09-24T02:34:11.447Z,14.98
2022-09-24T02:35:12.049Z,14.97
2022-09-24T02:36:12.035Z,14.97
2022-09-24T02:37:12.034Z,14.97
2022-09-24T02:38:12.012Z,14.97
2022-09-24T02:39:12.007Z,14.96
2022-09-24T02:40:12.033Z,14.95
2022-09-24T02:41:11.994Z,14.93
2022-09-24T02:42:11.263Z,14.93
2022-09-24T02:43:11.949Z,14.91
2022-09-24T02:44:12.704Z,14.90
2022-09-24T02:45:11.937Z,14.89
2022-09-24T02:46:11.984Z,14.90
2022-09-24T02:47:11.927Z,14.89
2022-09-24T02:48:12.694Z,14.89
2022-09-24T02:49:11.877Z,14.89
2022-09-24T02:50:11.885Z,14.90
2022-09-24T02:51:11.876Z,14.90
2022-09-24T02:52:11.856Z,14.90
2022-09-24T02:53:11.846Z,14.90
2022-09-24T02:54:11.239Z,14.88
2022-09-24T02:55:11.827Z,14.88
2022-09-24T02:56:11.130Z,14.88
2022-09-24T02:57:11.799Z,14.87
2022-09-24T02:58:11.793Z,14.86
2022-09-24T02:59:11.787Z,14.86
2022-09-24T03:00:11.078Z,14.84
2022-09-24T03:01:11.206Z,14.83
2022-09-24T03:02:11.262Z,14.82
2022-09-24T03:03:13.434Z,14.82
2022-09-24T03:04:11.727Z,14.82
2022-09-24T03:05:11.719Z,14.81
2022-09-24T03:06:12.459Z,14.81
2022-09-24T03:07:12.571Z,14.81
2022-09-24T03:08:10.999Z,14.81
2022-09-24T03:09:11.001Z,14.81
2022-09-24T03:10:10.984Z,14.80
2022-09-24T03:11:16.292Z,14.80
2022-09-24T03:12:12.022Z,14.80
2022-09-24T03:13:11.623Z,14.79
2022-09-24T03:14:11.669Z,14.78
2022-09-24T03:15:10.931Z,14.78
2022-09-24T03:16:11.693Z,14.78
2022-09-24T03:17:10.903Z,14.78
2022-09-24T03:18:11.581Z,14.77
2022-09-24T03:19:10.896Z,14.78
2022-09-24T03:20:10.863Z,14.77
2022-09-24T03:21:11.543Z,14.76
2022-09-24T03:22:10.843Z,14.77
2022-09-24T03:23:10.834Z,14.75
2022-09-24T03:24:11.872Z,14.76
2022-09-24T03:25:10.813Z,14.75
2022-09-24T03:26:11.484Z,14.76
2022-09-24T03:27:10.786Z,14.76
2022-09-24T03:28:10.776Z,14.75
2022-09-24T03:29:10.775Z,14.74
2022-09-24T03:30:11.445Z,14.73
2022-09-24T03:31:10.787Z,14.73
2022-09-24T03:32:11.424Z,14.72
2022-09-24T03:33:12.206Z,14.71
2022-09-24T03:34:10.776Z,14.70
2022-09-24T03:35:10.707Z,14.69
2022-09-24T03:36:10.730Z,14.68
2022-09-24T03:37:10.685Z,14.65
2022-09-24T03:38:11.358Z,14.65
2022-09-24T03:39:12.098Z,14.64
2022-09-24T03:40:10.689Z,14.64
2022-09-24T03:41:10.656Z,14.63
2022-09-24T03:42:10.672Z,14.63
2022-09-24T03:43:12.076Z,14.63
2022-09-24T03:44:11.341Z,14.62
2022-09-24T03:45:10.599Z,14.62
2022-09-24T03:46:10.664Z,14.62
2022-09-24T03:47:11.259Z,14.61
2022-09-24T03:48:11.228Z,14.60
2022-09-24T03:49:10.569Z,14.60
2022-09-24T03:50:11.987Z,14.59
2022-09-24T03:51:11.239Z,14.59
2022-09-24T03:52:11.212Z,14.61
2022-09-24T03:53:11.190Z,14.60
2022-09-24T03:54:10.675Z,14.61
2022-09-24T03:55:11.178Z,14.60
2022-09-24T03:56:11.171Z,14.60
2022-09-24T03:57:10.469Z,14.59
2022-09-24T03:58:10.481Z,14.59
2022-09-24T03:59:10.455Z,14.59
2022-09-24T04:00:10.471Z,14.58
2022-09-24T04:01:11.111Z,14.58
2022-09-24T04:02:11.226Z,14.57
2022-09-24T04:03:11.388Z,14.56
2022-09-24T04:04:10.407Z,14.56
2022-09-24T04:05:11.067Z,14.55
2022-09-24T04:06:11.056Z,14.54
2022-09-24T04:07:11.055Z,14.52
2022-09-24T04:08:10.367Z,14.52
2022-09-24T04:09:11.025Z,14.52
2022-09-24T04:10:10.365Z,14.53
2022-09-24T04:11:11.016Z,14.53
2022-09-24T04:12:10.385Z,14.53
2022-09-24T04:13:10.306Z,14.53
2022-09-24T04:14:10.288Z,14.53
2022-09-24T04:15:10.300Z,14.53
2022-09-24T04:16:10.989Z,14.53
2022-09-24T04:17:10.945Z,14.53
2022-09-24T04:18:10.921Z,14.52
2022-09-24T04:19:10.917Z,14.52
2022-09-24T04:20:10.911Z,14.51
2022-09-24T04:21:10.899Z,14.51
2022-09-24T04:22:10.225Z,14.52
2022-09-24T04:23:11.147Z,14.52
2022-09-24T04:24:10.231Z,14.52
2022-09-24T04:25:14.754Z,14.53
2022-09-24T04:26:10.846Z,14.51
2022-09-24T04:27:10.168Z,14.52
2022-09-24T04:28:10.830Z,14.52
2022-09-24T04:29:10.130Z,14.52
2022-09-24T04:30:10.151Z,14.52
2022-09-24T04:31:10.219Z,14.52
2022-09-24T04:32:10.110Z,14.52
2022-09-24T04:33:10.099Z,14.52
2022-09-24T04:34:10.807Z,14.52
2022-09-24T04:35:10.753Z,14.52
2022-09-24T04:36:10.091Z,14.52
2022-09-24T04:37:11.492Z,14.52
2022-09-24T04:38:10.030Z,14.51
2022-09-24T04:39:10.711Z,14.52
2022-09-24T04:40:10.720Z,14.52
2022-09-24T04:41:10.693Z,14.52
2022-09-24T04:42:10.753Z,14.53
2022-09-24T04:43:09.976Z,14.53
2022-09-24T04:44:09.994Z,14.53
2022-09-24T04:45:10.642Z,14.53
2022-09-24T04:46:10.717Z,14.53
2022-09-24T04:47:11.383Z,14.54
2022-09-24T04:48:10.594Z,14.54
2022-09-24T04:49:10.695Z,14.55
2022-09-24T04:50:10.586Z,14.56
2022-09-24T04:51:10.583Z,14.56
2022-09-24T04:52:09.886Z,14.56
2022-09-24T04:53:09.882Z,14.57
2022-09-24T04:54:09.927Z,14.57
2022-09-24T04:55:10.536Z,14.58
2022-09-24T04:56:09.837Z,14.58
2022-09-24T04:57:09.839Z,14.59
2022-09-24T04:58:10.507Z,14.58
2022-09-24T04:59:10.539Z,14.59
2022-09-24T05:00:11.367Z,14.59
2022-09-24T05:01:09.796Z,14.59
2022-09-24T05:02:10.090Z,14.60
2022-09-24T05:03:10.758Z,14.60
2022-09-24T05:04:09.779Z,14.60
2022-09-24T05:05:10.428Z,14.60
2022-09-24T05:06:10.420Z,14.60
2022-09-24T05:07:10.699Z,14.59
2022-09-24T05:08:09.738Z,14.60
2022-09-24T05:09:12.711Z,14.59
2022-09-24T05:10:09.690Z,14.60
2022-09-24T05:11:10.375Z,14.60
2022-09-24T05:12:11.219Z,14.60
2022-09-24T05:13:09.721Z,14.60
2022-09-24T05:14:09.680Z,14.59
2022-09-24T05:15:10.337Z,14.60
2022-09-24T05:16:10.009Z,14.61
2022-09-24T05:17:10.302Z,14.61
2022-09-24T05:18:10.283Z,14.61
2022-09-24T05:19:11.069Z,14.61
2022-09-24T05:20:10.269Z,14.62
2022-09-24T05:21:09.575Z,14.63
2022-09-24T05:22:10.251Z,14.62
2022-09-24T05:23:11.004Z,14.63
2022-09-24T05:24:10.211Z,14.65
2022-09-24T05:25:10.972Z,14.65
2022-09-24T05:26:09.530Z,14.66
2022-09-24T05:27:09.514Z,14.67
2022-09-24T05:28:10.183Z,14.68
2022-09-24T05:29:10.503Z,14.69
2022-09-24T05:30:10.456Z,14.71
2022-09-24T05:31:10.204Z,14.72
2022-09-24T05:32:10.144Z,14.73
2022-09-24T05:33:10.139Z,14.74
2022-09-24T05:34:09.457Z,14.75
2022-09-24T05:35:09.423Z,14.76
2022-09-24T05:36:10.106Z,14.77
2022-09-24T05:37:10.094Z,14.79
2022-09-24T05:38:09.443Z,14.79
2022-09-24T05:39:09.467Z,14.81
2022-09-24T05:40:10.110Z,14.82
2022-09-24T05:41:09.385Z,14.82
2022-09-24T05:42:10.030Z,14.84
2022-09-24T05:43:10.027Z,14.84
2022-09-24T05:44:09.331Z,14.85
2022-09-24T05:45:10.008Z,14.85
2022-09-24T05:46:10.038Z,14.87
2022-09-24T05:47:09.337Z,14.87
2022-09-24T05:48:10.271Z,14.89
2022-09-24T05:49:09.346Z,14.90
2022-09-24T05:50:09.975Z,14.91
2022-09-24T05:51:10.711Z,14.94
2022-09-24T05:52:09.933Z,14.95
2022-09-24T05:53:09.269Z,14.98
2022-09-24T05:54:09.915Z,15.01
2022-09-24T05:55:10.652Z,15.03
2022-09-24T05:56:09.270Z,15.06
2022-09-24T05:57:09.880Z,15.09
2022-09-24T05:58:09.861Z,15.11
2022-09-24T05:59:09.277Z,15.13
2022-09-24T06:00:09.834Z,15.16
2022-09-24T06:01:09.833Z,15.17
2022-09-24T06:02:09.936Z,15.19
2022-09-24T06:03:09.217Z,15.21
2022-09-24T06:04:09.487Z,15.23
2022-09-24T06:05:09.102Z,15.25
2022-09-24T06:06:09.774Z,15.28
2022-09-24T06:07:09.773Z,15.31
2022-09-24T06:08:09.133Z,15.34
2022-09-24T06:09:09.796Z,15.35
2022-09-24T06:10:09.734Z,15.38
2022-09-24T06:11:09.685Z,15.39
2022-09-24T06:12:09.171Z,15.42
2022-09-24T06:13:09.933Z,15.46
2022-09-24T06:14:10.462Z,15.49
2022-09-24T06:15:09.682Z,15.54
2022-09-24T06:16:09.745Z,15.56
2022-09-24T06:17:09.666Z,15.61
2022-09-24T06:18:09.718Z,15.64
2022-09-24T06:19:09.733Z,15.67
2022-09-24T06:20:10.410Z,15.70
2022-09-24T06:21:08.956Z,15.73
2022-09-24T06:22:08.917Z,15.75
2022-09-24T06:23:08.906Z,15.79
2022-09-24T06:24:08.947Z,15.81
2022-09-24T06:25:08.891Z,15.83
2022-09-24T06:26:09.557Z,15.84
2022-09-24T06:27:09.539Z,15.85
2022-09-24T06:28:09.528Z,15.86
2022-09-24T06:29:09.571Z,15.87
2022-09-24T06:30:08.885Z,15.87
2022-09-24T06:31:09.539Z,15.89
2022-09-24T06:32:09.499Z,15.91
2022-09-24T06:33:08.798Z,15.92
2022-09-24T06:34:09.470Z,15.93
2022-09-24T06:35:09.522Z,15.96
2022-09-24T06:36:08.840Z,15.97
2022-09-24T06:37:09.433Z,15.98
2022-09-24T06:38:09.433Z,16.00
2022-09-24T06:39:08.799Z,16.02
2022-09-24T06:40:09.511Z,16.05
2022-09-24T06:41:10.196Z,16.09
2022-09-24T06:42:09.372Z,16.12
2022-09-24T06:43:09.371Z,16.15
2022-09-24T06:44:09.364Z,16.17
2022-09-24T06:45:08.685Z,16.21
2022-09-24T06:46:09.382Z,16.25
2022-09-24T06:47:09.341Z,16.28
2022-09-24T06:48:09.314Z,16.32
2022-09-24T06:49:09.349Z,16.34
2022-09-24T06:50:08.613Z,16.37
2022-09-24T06:51:08.626Z,16.41
2022-09-24T06:52:09.535Z,16.44
2022-09-24T06:53:09.256Z,16.47
2022-09-24T06:54:08.596Z,16.49
2022-09-24T06:55:09.234Z,16.51
2022-09-24T06:56:08.535Z,16.55
2022-09-24T06:57:09.222Z,16.57
2022-09-24T06:58:09.238Z,16.61
2022-09-24T06:59:08.538Z,16.65
2022-09-24T07:00:09.182Z,16.69
2022-09-24T07:01:09.267Z,16.74
2022-09-24T07:02:09.205Z,16.79
2022-09-24T07:03:09.918Z,16.83
2022-09-24T07:04:09.146Z,16.87
2022-09-24T07:05:09.141Z,16.91
2022-09-24T07:06:09.115Z,16.95
2022-09-24T07:07:08.483Z,17.00
2022-09-24T07:08:08.438Z,17.04
2022-09-24T07:09:09.149Z,17.08
2022-09-24T07:10:09.070Z,17.11
2022-09-24T07:11:09.066Z,17.15
2022-09-24T07:12:09.913Z,17.19
2022-09-24T07:13:08.361Z,17.24
2022-09-24T07:14:09.810Z,17.28
2022-09-24T07:15:09.284Z,17.32
2022-09-24T07:16:09.822Z,17.37
2022-09-24T07:17:09.761Z,17.41
2022-09-24T07:18:09.804Z,17.46
2022-09-24T07:19:09.861Z,17.49
2022-09-24T07:20:09.732Z,17.52
2022-09-24T07:21:08.292Z,17.56
2022-09-24T07:22:09.723Z,17.59
2022-09-24T07:23:08.269Z,17.61
2022-09-24T07:24:09.711Z,17.63
2022-09-24T07:25:08.921Z,17.65
2022-09-24T07:26:08.256Z,17.66
2022-09-24T07:27:08.264Z,17.67
2022-09-24T07:28:08.883Z,17.69
2022-09-24T07:29:08.937Z,17.72
2022-09-24T07:30:09.668Z,17.75
2022-09-24T07:31:08.878Z,17.76
2022-09-24T07:32:08.440Z,17.77
2022-09-24T07:33:08.144Z,17.78
2022-09-24T07:34:08.263Z,17.77
2022-09-24T07:35:08.128Z,17.76
2022-09-24T07:36:08.857Z,17.75
2022-09-24T07:37:08.125Z,17.73
2022-09-24T07:38:08.802Z,17.72
2022-09-24T07:39:08.755Z,17.71
2022-09-24T07:40:08.109Z,17.71
2022-09-24T07:41:08.138Z,17.72
2022-09-24T07:42:08.728Z,17.72
2022-09-24T07:43:08.727Z,17.72
2022-09-24T07:44:08.122Z,17.71
2022-09-24T07:45:08.698Z,17.71
2022-09-24T07:46:08.128Z,17.71
2022-09-24T07:47:11.013Z,17.67
2022-09-24T07:48:10.457Z,17.66
2022-09-24T07:49:08.697Z,17.65
2022-09-24T07:50:07.990Z,17.64
2022-09-24T07:51:08.639Z,17.63
2022-09-24T07:52:08.619Z,17.61
2022-09-24T07:53:07.937Z,17.59
2022-09-24T07:54:08.088Z,17.57
2022-09-24T07:55:08.611Z,17.56
2022-09-24T07:56:09.322Z,17.54
2022-09-24T07:57:08.569Z,17.54
2022-09-24T07:58:08.572Z,17.53
2022-09-24T07:59:07.862Z,17.50
2022-09-24T08:00:07.889Z,17.49
2022-09-24T08:01:08.528Z,17.48
2022-09-24T08:02:08.541Z,17.46
2022-09-24T08:03:07.811Z,17.46
2022-09-24T08:04:08.692Z,17.45
2022-09-24T08:05:08.484Z,17.44
2022-09-24T08:06:07.826Z,17.44
2022-09-24T08:07:07.837Z,17.44
2022-09-24T08:08:08.445Z,17.44
2022-09-24T08:09:08.437Z,17.45
2022-09-24T08:10:07.777Z,17.46
2022-09-24T08:11:08.418Z,17.48
2022-09-24T08:12:08.397Z,17.51
2022-09-24T08:13:09.150Z,17.54
2022-09-24T08:14:07.703Z,17.58
2022-09-24T08:15:08.374Z,17.62
2022-09-24T08:16:07.765Z,17.65
2022-09-24T08:17:07.669Z,17.69
2022-09-24T08:18:07.682Z,17.71
2022-09-24T08:19:08.587Z,17.77
2022-09-24T08:20:07.661Z,17.81
2022-09-24T08:21:08.322Z,17.84
2022-09-24T08:22:07.813Z,17.87
2022-09-24T08:23:08.289Z,17.90
2022-09-24T08:24:07.803Z,17.93
2022-09-24T08:25:08.259Z,17.96
2022-09-24T08:26:08.259Z,17.97
2022-09-24T08:27:07.691Z,17.99
2022-09-24T08:28:07.577Z,18.01
2022-09-24T08:29:08.230Z,18.04
2022-09-24T08:30:07.560Z,18.07
2022-09-24T08:31:08.251Z,18.10
2022-09-24T08:32:07.506Z,18.14
2022-09-24T08:33:07.511Z,18.17
2022-09-24T08:34:07.568Z,18.21
2022-09-24T08:35:08.155Z,18.24
2022-09-24T08:36:07.668Z,18.28
2022-09-24T08:37:08.162Z,18.31
2022-09-24T08:38:08.431Z,18.35
2022-09-24T08:39:07.462Z,18.38
2022-09-24T08:40:07.458Z,18.41
2022-09-24T08:41:07.453Z,18.44
2022-09-24T08:42:07.416Z,18.47
2022-09-24T08:43:08.336Z,18.49
2022-09-24T08:44:08.124Z,18.51
2022-09-24T08:45:07.369Z,18.53
2022-09-24T08:46:07.431Z,18.56
2022-09-24T08:47:08.025Z,18.60
2022-09-24T08:48:09.304Z,18.62
2022-09-24T08:49:07.999Z,18.65
2022-09-24T08:50:08.765Z,18.68
2022-09-24T08:51:09.296Z,18.73
2022-09-24T08:52:07.965Z,18.74
2022-09-24T08:53:07.303Z,18.76
2022-09-24T08:54:07.988Z,18.80
2022-09-24T08:55:08.738Z,18.82
2022-09-24T08:56:07.927Z,18.84
2022-09-24T08:57:08.317Z,18.86
2022-09-24T08:58:07.896Z,18.87
2022-09-24T08:59:07.887Z,18.90
2022-09-24T09:00:07.938Z,18.93
2022-09-24T09:01:07.312Z,18.94
2022-09-24T09:02:08.777Z,18.95
2022-09-24T09:03:09.147Z,18.97
2022-09-24T09:04:07.204Z,18.99
2022-09-24T09:05:08.580Z,19.02
2022-09-24T09:06:08.621Z,19.00
2022-09-24T09:07:08.090Z,19.00
2022-09-24T09:08:27.236Z,18.98
2022-09-24T09:09:08.194Z,18.98
2022-09-24T09:10:07.152Z,18.98
2022-09-24T09:11:07.769Z,18.98
2022-09-24T09:12:07.753Z,19.02
2022-09-24T09:13:07.091Z,19.04
2022-09-24T09:14:07.731Z,19.10
2022-09-24T09:15:07.723Z,19.12
2022-09-24T09:16:07.746Z,19.14
2022-09-24T09:17:07.103Z,19.18
2022-09-24T09:18:07.956Z,19.22
2022-09-24T09:19:06.993Z,19.29
2022-09-24T09:20:07.023Z,19.38
2022-09-24T09:21:07.654Z,19.48
2022-09-24T09:22:07.645Z,19.58
2022-09-24T09:23:07.645Z,19.67
2022-09-24T09:24:08.934Z,19.74
2022-09-24T09:25:08.452Z,19.81
2022-09-24T09:26:07.605Z,19.86
2022-09-24T09:27:06.910Z,19.92
2022-09-24T09:28:07.585Z,19.99
2022-09-24T09:29:07.602Z,20.04
2022-09-24T09:30:11.784Z,20.10
2022-09-24T09:31:07.975Z,20.17
2022-09-24T09:32:07.832Z,20.22
2022-09-24T09:33:06.886Z,20.27
2022-09-24T09:34:08.327Z,20.33
2022-09-24T09:35:08.257Z,20.37
2022-09-24T09:36:07.580Z,20.41
2022-09-24T09:37:07.479Z,20.46
2022-09-24T09:38:07.479Z,20.49
2022-09-24T09:39:07.491Z,20.53
2022-09-24T09:40:06.828Z,20.51
2022-09-24T09:41:08.738Z,20.50
2022-09-24T09:42:07.430Z,20.50
2022-09-24T09:43:07.414Z,20.49
2022-09-24T09:44:06.743Z,20.47
2022-09-24T09:45:07.391Z,20.45
2022-09-24T09:46:07.459Z,20.41
2022-09-24T09:47:06.766Z,20.38
2022-09-24T09:48:07.362Z,20.38
2022-09-24T09:49:07.356Z,20.35
2022-09-24T09:50:08.110Z,20.31
2022-09-24T09:51:07.332Z,20.30
2022-09-24T09:52:07.322Z,20.34
2022-09-24T09:53:07.321Z,20.36
2022-09-24T09:54:07.567Z,20.38
2022-09-24T09:55:06.603Z,20.41
2022-09-24T09:56:07.275Z,20.45
2022-09-24T09:57:07.255Z,20.48
2022-09-24T09:58:07.275Z,20.47
2022-09-24T09:59:07.281Z,20.46
2022-09-24T10:00:06.588Z,20.46
2022-09-24T10:01:07.217Z,20.47
2022-09-24T10:02:07.253Z,20.49
2022-09-24T10:03:06.661Z,20.52
2022-09-24T10:04:07.186Z,20.57
2022-09-24T10:05:06.506Z,20.63
2022-09-24T10:06:06.523Z,20.70
2022-09-24T10:07:06.543Z,20.78
2022-09-24T10:08:08.399Z,20.84
2022-09-24T10:09:08.410Z,20.90
2022-09-24T10:10:07.123Z,20.93
2022-09-24T10:11:07.108Z,20.97
2022-09-24T10:12:07.277Z,21.00
2022-09-24T10:13:07.090Z,21.04
2022-09-24T10:14:07.401Z,21.08
2022-09-24T10:15:06.449Z,21.12
2022-09-24T10:16:07.592Z,21.16
2022-09-24T10:17:06.392Z,21.19
2022-09-24T10:18:06.391Z,21.20
2022-09-24T10:19:07.025Z,21.20
2022-09-24T10:20:07.024Z,21.21
2022-09-24T10:21:06.331Z,21.26
2022-09-24T10:22:06.312Z,21.32
2022-09-24T10:23:08.259Z,21.35
2022-09-24T10:24:06.952Z,21.39
2022-09-24T10:25:06.952Z,21.43
2022-09-24T10:26:06.950Z,21.48
2022-09-24T10:27:06.944Z,21.57
2022-09-24T10:28:06.247Z,21.67
2022-09-24T10:29:06.274Z,21.69
2022-09-24T10:30:06.669Z,21.68
2022-09-24T10:31:06.261Z,21.65
2022-09-24T10:32:06.888Z,21.62
2022-09-24T10:33:06.235Z,21.63
2022-09-24T10:34:06.865Z,21.69
2022-09-24T10:35:06.292Z,21.76
2022-09-24T10:36:06.855Z,21.84
2022-09-24T10:37:10.933Z,21.89
2022-09-24T10:38:06.186Z,21.91
2022-09-24T10:39:06.177Z,21.97
2022-09-24T10:40:06.277Z,22.06
2022-09-24T10:41:06.127Z,22.10
2022-09-24T10:42:06.767Z,22.10
2022-09-24T10:43:06.107Z,22.05
2022-09-24T10:44:06.120Z,22.02
2022-09-24T10:45:06.078Z,22.00
2022-09-24T10:46:06.108Z,22.00
2022-09-24T10:47:06.120Z,21.99
2022-09-24T10:48:06.800Z,21.94
2022-09-24T10:49:06.705Z,21.85
2022-09-24T10:50:06.020Z,21.74
2022-09-24T10:51:06.679Z,21.64
2022-09-24T10:52:06.670Z,21.55
2022-09-24T10:53:06.667Z,21.46
2022-09-24T10:54:06.119Z,21.36
2022-09-24T10:55:06.011Z,21.25
2022-09-24T10:56:06.000Z,21.15
2022-09-24T10:57:06.640Z,21.06
2022-09-24T10:58:06.884Z,20.98
2022-09-24T10:59:05.944Z,20.90
2022-09-24T11:00:05.928Z,20.83
2022-09-24T11:01:06.885Z,20.74
2022-09-24T11:02:07.862Z,20.66
2022-09-24T11:03:05.992Z,20.59
2022-09-24T11:04:05.955Z,20.54
2022-09-24T11:05:06.543Z,20.51
2022-09-24T11:06:05.849Z,20.52
2022-09-24T11:07:06.517Z,20.54
2022-09-24T11:08:05.825Z,20.57
2022-09-24T11:09:05.820Z,20.60
2022-09-24T11:10:06.715Z,20.60
2022-09-24T11:11:07.726Z,20.57
2022-09-24T11:12:06.456Z,20.51
2022-09-24T11:13:05.791Z,20.46
2022-09-24T11:14:06.466Z,20.40
2022-09-24T11:15:06.419Z,20.33
2022-09-24T11:16:05.785Z,20.25
2022-09-24T11:17:07.167Z,20.17
2022-09-24T11:18:06.413Z,20.11
2022-09-24T11:19:06.388Z,20.05
2022-09-24T11:20:06.369Z,20.02
2022-09-24T11:21:06.358Z,20.00
2022-09-24T11:22:06.642Z,20.00
2022-09-24T11:23:05.749Z,20.04
2022-09-24T11:24:06.343Z,20.08
2022-09-24T11:25:05.921Z,20.12
2022-09-24T11:26:05.641Z,20.16
2022-09-24T11:27:06.293Z,20.24
2022-09-24T11:28:06.272Z,20.35
2022-09-24T11:29:06.445Z,20.47
2022-09-24T11:30:06.248Z,20.61
2022-09-24T11:31:06.607Z,20.77
2022-09-24T11:32:06.539Z,20.90
2022-09-24T11:33:06.553Z,21.02
2022-09-24T11:34:06.507Z,21.13
2022-09-24T11:35:06.206Z,21.24
2022-09-24T11:36:06.224Z,21.32
2022-09-24T11:37:06.183Z,21.38
2022-09-24T11:38:06.484Z,21.44
2022-09-24T11:39:05.477Z,21.49
2022-09-24T11:40:06.957Z,21.53
2022-09-24T11:41:06.241Z,21.59
2022-09-24T11:42:05.640Z,21.65
2022-09-24T11:43:05.498Z,21.70
2022-09-24T11:44:07.051Z,21.76
2022-09-24T11:45:05.518Z,21.80
2022-09-24T11:46:05.465Z,21.84
2022-09-24T11:47:08.626Z,21.88
2022-09-24T11:48:07.400Z,21.91
2022-09-24T11:49:05.414Z,21.94
2022-09-24T11:50:05.418Z,21.96
2022-09-24T11:51:05.471Z,21.96
2022-09-24T11:52:06.069Z,21.97
2022-09-24T11:53:06.399Z,21.95
2022-09-24T11:54:06.340Z,21.94
2022-09-24T11:55:06.304Z,21.89
2022-09-24T11:56:10.835Z,21.86
2022-09-24T11:57:07.260Z,21.82
2022-09-24T11:58:06.230Z,21.77
2022-09-24T11:59:05.953Z,21.73
2022-09-24T12:00:05.913Z,21.66
2022-09-24T12:01:05.922Z,21.58
2022-09-24T12:02:05.948Z,21.50
2022-09-24T12:03:05.284Z,21.43
2022-09-24T12:04:05.939Z,21.41
2022-09-24T12:05:05.882Z,21.42
2022-09-24T12:06:05.864Z,21.44
2022-09-24T12:07:05.863Z,21.46
2022-09-24T12:08:05.854Z,21.49
2022-09-24T12:09:05.835Z,21.52
2022-09-24T12:10:05.181Z,21.56
2022-09-24T12:11:05.814Z,21.61
2022-09-24T12:12:05.164Z,21.64
2022-09-24T12:13:05.797Z,21.65
2022-09-24T12:14:05.850Z,21.64
2022-09-24T12:15:05.767Z,21.62
2022-09-24T12:16:06.593Z,21.58
2022-09-24T12:17:05.065Z,21.53
2022-09-24T12:18:05.087Z,21.46
2022-09-24T12:19:05.479Z,21.38
2022-09-24T12:20:05.728Z,21.31
2022-09-24T12:21:05.028Z,21.22
2022-09-24T12:22:05.751Z,21.16
2022-09-24T12:23:05.692Z,21.09
2022-09-24T12:24:05.111Z,21.04
2022-09-24T12:25:05.011Z,20.96
2022-09-24T12:26:05.001Z,20.87
2022-09-24T12:27:05.640Z,20.78
2022-09-24T12:28:05.630Z,20.69
2022-09-24T12:29:05.629Z,20.61
2022-09-24T12:30:05.905Z,20.51
2022-09-24T12:31:09.974Z,20.42
2022-09-24T12:32:05.902Z,20.33
2022-09-24T12:33:05.575Z,20.25
2022-09-24T12:34:05.580Z,20.22
2022-09-24T12:35:05.560Z,20.20
2022-09-24T12:36:05.543Z,20.21
2022-09-24T12:37:05.535Z,20.22
2022-09-24T12:38:06.293Z,20.24
2022-09-24T12:39:04.831Z,20.25
2022-09-24T12:40:04.848Z,20.25
2022-09-24T12:41:05.514Z,20.24
2022-09-24T12:42:04.915Z,20.23
2022-09-24T12:43:05.464Z,20.24
2022-09-24T12:44:05.542Z,20.27
2022-09-24T12:45:04.767Z,20.30
2022-09-24T12:46:05.471Z,20.34
2022-09-24T12:47:05.478Z,20.36
2022-09-24T12:48:04.746Z,20.39
2022-09-24T12:49:05.404Z,20.42
2022-09-24T12:50:04.719Z,20.44
2022-09-24T12:51:04.719Z,20.46
2022-09-24T12:52:04.749Z,20.48